Current Conditions
Mostly Scattered
Clouds



Pressure
995.92 (mb) - 29.41 (inHG)
Visibility

6.2 (miles) - 10.0 (km)
   Temperature
11  °C
52°F
4  °C
Dewpoint
62  %
 Humidity
   Wind Speed
15  mph
13  kts
24  km/h
6.7  m/s
   Wind Direction
 300°
West North
West
   Airport Data
EGTK
Location Oxford (Kidlington) 26 mi (41.83 km)
Metar :EGTK 050650Z 30013KT 270V330 9999 SCT033 11/04 Q0996
Fri 5th June 07:50 am
   Raw Metar Info
Raw METAR is the most common format in the world for the transmission of observational weather data. It is highly standardized through the International Civil Aviation Organization (ICAO), which allows it to be understood throughout most of the world.
   API Info
Data Provided by
https://www.checkwx.com/weather/EGTK
   © Info
CSS/SVG/PHP scripts were developed by weather34.com for use in the weather34 template © 2015-2020

Guide Info provided by Metar-Wikipedia